createdAt,value
2023-11-02T00:01:36.311Z,98195.02
2023-11-02T00:04:03.254Z,98191.45
2023-11-02T00:06:34.912Z,98198.77
2023-11-02T00:09:05.559Z,98202.81
2023-11-02T00:11:55.969Z,98198.34
2023-11-02T00:14:23.750Z,98199.66
2023-11-02T00:16:50.866Z,98200.08
2023-11-02T00:19:31.432Z,98196.91
2023-11-02T00:21:59.261Z,98199.25
2023-11-02T00:24:27.533Z,98199.53
2023-11-02T00:26:55.980Z,98204.98
2023-11-02T00:29:22.911Z,98199.08
2023-11-02T00:31:49.730Z,98193.21
2023-11-02T00:34:16.655Z,98189.66
2023-11-02T00:36:43.613Z,98190.23
2023-11-02T00:39:11.156Z,98183.70
2023-11-02T00:41:38.463Z,98183.25
2023-11-02T00:44:06.217Z,98182.20
2023-11-02T00:46:34.622Z,98178.51
2023-11-02T00:49:02.332Z,98173.95
2023-11-02T00:51:31.560Z,98174.95
2023-11-02T00:54:00.011Z,98169.35
2023-11-02T00:56:36.665Z,98168.44
2023-11-02T00:59:04.437Z,98165.19
2023-11-02T01:01:32.010Z,98168.39
2023-11-02T01:04:04.029Z,98166.48
2023-11-02T01:06:31.785Z,98160.36
2023-11-02T01:09:01.304Z,98159.06
2023-11-02T01:11:30.990Z,98160.91
2023-11-02T01:13:58.344Z,98160.07
2023-11-02T01:16:25.681Z,98164.36
2023-11-02T01:18:52.592Z,98160.61
2023-11-02T01:21:19.457Z,98162.10
2023-11-02T01:23:47.353Z,98155.39
2023-11-02T01:26:49.055Z,98154.89
2023-11-02T01:29:15.881Z,98153.84
2023-11-02T01:31:42.881Z,98157.77
2023-11-02T01:34:12.134Z,98158.07
2023-11-02T01:36:40.013Z,98156.10
2023-11-02T01:39:15.805Z,98158.20
2023-11-02T01:41:45.980Z,98154.96
2023-11-02T01:44:47.121Z,98150.59
2023-11-02T01:47:30.401Z,98150.20
2023-11-02T01:50:09.881Z,98149.70
2023-11-02T01:52:55.629Z,98146.30
2023-11-02T01:55:47.663Z,98144.37
2023-11-02T01:58:33.644Z,98141.42
2023-11-02T02:01:12.953Z,98141.79
2023-11-02T02:04:09.156Z,98139.14
2023-11-02T02:06:40.627Z,98139.62
2023-11-02T02:09:14.478Z,98138.17
2023-11-02T02:11:51.838Z,98136.55
2023-11-02T02:14:57.194Z,98140.26
2023-11-02T02:17:29.317Z,98132.77
2023-11-02T02:19:58.676Z,98131.88
2023-11-02T02:22:27.138Z,98132.13
2023-11-02T02:24:57.371Z,98132.12
2023-11-02T02:27:56.443Z,98129.11
2023-11-02T02:30:26.135Z,98130.00
2023-11-02T02:33:05.163Z,98131.25
2023-11-02T02:35:55.182Z,98128.58
2023-11-02T02:38:29.484Z,98121.05
2023-11-02T02:41:06.332Z,98121.76
2023-11-02T02:43:33.147Z,98122.23
2023-11-02T02:46:00.040Z,98122.33
2023-11-02T02:48:26.972Z,98125.90
2023-11-02T02:50:58.886Z,98122.93
2023-11-02T02:53:27.736Z,98116.05
2023-11-02T02:55:57.239Z,98116.70
2023-11-02T02:58:27.592Z,98112.91
2023-11-02T03:00:54.816Z,98111.85
2023-11-02T03:03:22.870Z,98113.24
2023-11-02T03:05:49.730Z,98114.48
2023-11-02T03:08:17.117Z,98113.22
2023-11-02T03:10:44.216Z,98112.59
2023-11-02T03:13:13.323Z,98109.55
2023-11-02T03:15:42.314Z,98103.83
2023-11-02T03:18:11.177Z,98112.77
2023-11-02T03:20:38.484Z,98111.86
2023-11-02T03:23:31.405Z,98115.70
2023-11-02T03:26:16.270Z,98117.83
2023-11-02T03:29:00.674Z,98113.12
2023-11-02T03:31:27.657Z,98110.35
2023-11-02T03:34:17.866Z,98105.07
2023-11-02T03:36:48.526Z,98107.34
2023-11-02T03:39:31.801Z,98103.11
2023-11-02T03:42:09.383Z,98101.45
2023-11-02T03:44:57.787Z,98103.58
2023-11-02T03:47:47.820Z,98100.96
2023-11-02T03:50:28.599Z,98101.25
2023-11-02T03:53:03.354Z,98097.30
2023-11-02T03:55:45.697Z,98094.83
2023-11-02T03:58:23.059Z,98097.80
2023-11-02T04:00:57.879Z,98097.89
2023-11-02T04:03:24.747Z,98096.14
2023-11-02T04:05:51.628Z,98093.27
2023-11-02T04:08:19.631Z,98092.67
2023-11-02T04:11:02.039Z,98090.54
2023-11-02T04:13:31.674Z,98095.78
2023-11-02T04:16:00.964Z,98096.98
2023-11-02T04:18:27.821Z,98095.52
2023-11-02T04:20:55.217Z,98096.63
2023-11-02T04:23:22.340Z,98093.77
2023-11-02T04:25:51.442Z,98095.65
2023-11-02T04:28:18.741Z,98095.00
2023-11-02T04:30:45.574Z,98093.93
2023-11-02T04:33:14.142Z,98089.48
2023-11-02T04:35:43.948Z,98090.13
2023-11-02T04:38:11.080Z,98089.02
2023-11-02T04:40:40.335Z,98084.45
2023-11-02T04:43:07.335Z,98081.05
2023-11-02T04:45:35.610Z,98081.77
2023-11-02T04:48:03.976Z,98084.10
2023-11-02T04:50:31.122Z,98087.35
2023-11-02T04:52:57.976Z,98086.71
2023-11-02T04:55:24.803Z,98082.21
2023-11-02T04:57:51.654Z,98076.80
2023-11-02T05:00:19.049Z,98080.66
2023-11-02T05:02:46.085Z,98078.55
2023-11-02T05:05:12.889Z,98080.40
2023-11-02T05:07:39.711Z,98076.92
2023-11-02T05:10:07.301Z,98075.31
2023-11-02T05:12:34.462Z,98077.16
2023-11-02T05:15:01.397Z,98080.60
2023-11-02T05:17:28.251Z,98079.23
2023-11-02T05:19:55.108Z,98080.73
2023-11-02T05:22:22.052Z,98084.08
2023-11-02T05:24:48.883Z,98082.66
2023-11-02T05:27:15.909Z,98085.34
2023-11-02T05:29:42.925Z,98085.28
2023-11-02T05:32:10.420Z,98088.50
2023-11-02T05:34:37.397Z,98087.11
2023-11-02T05:37:05.709Z,98093.32
2023-11-02T05:39:32.596Z,98086.24
2023-11-02T05:41:59.574Z,98087.25
2023-11-02T05:44:26.467Z,98088.05
2023-11-02T05:46:55.985Z,98088.21
2023-11-02T05:49:23.008Z,98087.15
2023-11-02T05:51:50.033Z,98091.60
2023-11-02T05:54:16.959Z,98094.00
2023-11-02T05:56:43.829Z,98097.42
2023-11-02T05:59:12.068Z,98100.00
2023-11-02T06:01:39.183Z,98096.40
2023-11-02T06:04:06.313Z,98094.39
2023-11-02T06:06:33.353Z,98093.98
2023-11-02T06:09:00.438Z,98089.98
2023-11-02T06:11:27.644Z,98091.23
2023-11-02T06:13:56.933Z,98091.83
2023-11-02T06:16:24.624Z,98088.60
2023-11-02T06:18:52.440Z,98092.02
2023-11-02T06:21:22.696Z,98093.89
2023-11-02T06:23:49.624Z,98091.08
2023-11-02T06:26:19.591Z,98088.80
2023-11-02T06:28:49.330Z,98083.19
2023-11-02T06:31:16.225Z,98085.44
2023-11-02T06:33:43.679Z,98083.81
2023-11-02T06:36:10.755Z,98081.98
2023-11-02T06:38:37.613Z,98083.20
2023-11-02T06:41:04.841Z,98084.72
2023-11-02T06:43:31.718Z,98081.93
2023-11-02T06:45:58.596Z,98083.00
2023-11-02T06:48:25.831Z,98083.77
2023-11-02T06:50:52.851Z,98087.81
2023-11-02T06:53:19.634Z,98085.55
2023-11-02T06:55:46.604Z,98082.16
2023-11-02T06:58:13.393Z,98085.56
2023-11-02T07:00:40.257Z,98086.52
2023-11-02T07:03:07.246Z,98086.21
2023-11-02T07:05:36.991Z,98082.34
2023-11-02T07:08:04.297Z,98079.70
2023-11-02T07:10:32.360Z,98080.56
2023-11-02T07:13:00.555Z,98074.77
2023-11-02T07:15:29.680Z,98076.05
2023-11-02T07:17:56.629Z,98066.48
2023-11-02T07:20:23.487Z,98063.58
2023-11-02T07:22:50.539Z,98061.64
2023-11-02T07:25:17.375Z,98057.28
2023-11-02T07:27:44.694Z,98051.21
2023-11-02T07:30:12.501Z,98053.67
2023-11-02T07:32:39.695Z,98045.89
2023-11-02T07:35:06.923Z,98039.83
2023-11-02T07:37:33.784Z,98035.58
2023-11-02T07:40:00.609Z,98037.08
2023-11-02T07:42:27.523Z,98037.58
2023-11-02T07:44:57.059Z,98034.11
2023-11-02T07:47:23.832Z,98029.64
2023-11-02T07:49:50.718Z,98027.63
2023-11-02T07:52:17.580Z,98024.73
2023-11-02T07:54:44.625Z,98025.16
2023-11-02T07:57:12.286Z,98021.28
2023-11-02T07:59:39.412Z,98017.44
2023-11-02T08:02:06.738Z,98011.98
2023-11-02T08:04:34.428Z,98004.91
2023-11-02T08:07:02.249Z,97998.55
2023-11-02T08:09:31.245Z,97992.67
2023-11-02T08:11:58.477Z,97989.32
2023-11-02T08:14:25.392Z,97983.73
2023-11-02T08:16:52.467Z,97978.64
2023-11-02T08:19:19.428Z,97974.05
2023-11-02T08:21:46.345Z,97978.95
2023-11-02T08:24:13.839Z,97974.30
2023-11-02T08:26:40.972Z,97971.30
2023-11-02T08:29:08.040Z,97960.05
2023-11-02T08:31:35.010Z,97961.05
2023-11-02T08:34:03.700Z,97960.48
2023-11-02T08:36:33.011Z,97959.11
2023-11-02T08:39:00.461Z,97955.55
2023-11-02T08:41:28.653Z,97957.11
2023-11-02T08:43:58.107Z,97957.28
2023-11-02T08:46:25.074Z,97956.68
2023-11-02T08:48:56.200Z,97953.96
2023-11-02T08:51:23.830Z,97955.16
2023-11-02T08:53:51.756Z,97952.29
2023-11-02T08:56:18.649Z,97950.86
2023-11-02T08:58:54.006Z,97952.65
2023-11-02T09:01:26.770Z,97951.08
2023-11-02T09:03:54.982Z,97950.47
2023-11-02T09:06:22.841Z,97951.23
2023-11-02T09:08:50.808Z,97946.52
2023-11-02T09:11:18.713Z,97941.83
2023-11-02T09:13:45.914Z,97933.11
2023-11-02T09:16:12.795Z,97931.86
2023-11-02T09:18:39.768Z,97928.95
2023-11-02T09:21:08.533Z,97924.34
2023-11-02T09:23:36.003Z,97915.17
2023-11-02T09:26:03.681Z,97910.02
2023-11-02T09:28:31.076Z,97909.82
2023-11-02T09:30:57.959Z,97910.59
2023-11-02T09:33:24.945Z,97907.11
2023-11-02T09:35:55.109Z,97907.54
2023-11-02T09:38:22.296Z,97899.91
2023-11-02T09:40:50.008Z,97895.16
2023-11-02T09:43:17.208Z,97892.77
2023-11-02T09:45:44.385Z,97887.46
2023-11-02T09:48:11.653Z,97881.95
2023-11-02T09:50:38.658Z,97879.41
2023-11-02T09:53:06.689Z,97872.28
2023-11-02T09:55:33.935Z,97870.83
2023-11-02T09:58:01.034Z,97867.67
2023-11-02T10:00:28.124Z,97862.19
2023-11-02T10:02:55.170Z,97860.91
2023-11-02T10:05:24.421Z,97856.13
2023-11-02T10:07:51.520Z,97851.69
2023-11-02T10:10:20.144Z,97847.56
2023-11-02T10:12:47.253Z,97843.45
2023-11-02T10:15:18.402Z,97845.13
2023-11-02T10:17:46.292Z,97847.41
2023-11-02T10:20:17.092Z,97845.36
2023-11-02T10:22:45.859Z,97844.12
2023-11-02T10:25:15.828Z,97837.41
2023-11-02T10:27:43.427Z,97831.20
2023-11-02T10:30:12.050Z,97824.69
2023-11-02T10:32:39.231Z,97822.70
2023-11-02T10:35:07.153Z,97818.80
2023-11-02T10:37:37.423Z,97810.80
2023-11-02T10:40:05.952Z,97806.27
2023-11-02T10:42:33.202Z,97809.03
2023-11-02T10:45:00.969Z,97803.89
2023-11-02T10:47:31.411Z,97805.95
2023-11-02T10:50:00.416Z,97798.70
2023-11-02T10:52:43.547Z,97797.24
2023-11-02T10:55:18.781Z,97796.50
2023-11-02T10:57:46.152Z,97786.45
2023-11-02T11:00:14.697Z,97782.88
2023-11-02T11:02:41.744Z,97775.12
2023-11-02T11:05:11.067Z,97777.98
2023-11-02T11:07:38.446Z,97769.67
2023-11-02T11:10:08.213Z,97767.07
2023-11-02T11:12:37.483Z,97762.07
2023-11-02T11:15:04.866Z,97756.72
2023-11-02T11:17:32.020Z,97748.37
2023-11-02T11:19:58.901Z,97749.89
2023-11-02T11:22:29.116Z,97748.14
2023-11-02T11:24:57.063Z,97744.77
2023-11-02T11:27:44.802Z,97742.92
2023-11-02T11:30:20.946Z,97743.75
2023-11-02T11:32:49.247Z,97741.25
2023-11-02T11:35:18.655Z,97739.33
2023-11-02T11:37:53.636Z,97738.23
2023-11-02T11:40:22.016Z,97732.77
2023-11-02T11:42:55.642Z,97735.23
2023-11-02T11:45:38.907Z,97730.61
2023-11-02T11:48:08.116Z,97729.64
2023-11-02T11:50:41.829Z,97727.98
2023-11-02T11:53:23.107Z,97727.20
2023-11-02T11:55:54.131Z,97719.55
2023-11-02T11:58:36.548Z,97716.86
2023-11-02T12:01:03.460Z,97718.46
2023-11-02T12:03:36.671Z,97719.75
2023-11-02T12:06:08.137Z,97717.88
2023-11-02T12:08:45.637Z,97722.69
2023-11-02T12:11:15.581Z,97714.48
2023-11-02T12:15:21.318Z,97716.69
2023-11-02T12:17:55.832Z,97711.33
2023-11-02T12:20:33.984Z,97711.40
2023-11-02T12:23:01.250Z,97715.52
2023-11-02T12:25:28.288Z,97707.35
2023-11-02T12:27:58.716Z,97703.99
2023-11-02T12:30:25.933Z,97701.78
2023-11-02T12:32:53.647Z,97700.77
2023-11-02T12:35:22.739Z,97697.08
2023-11-02T12:38:08.830Z,97695.87
2023-11-02T12:40:51.830Z,97691.96
2023-11-02T12:43:25.332Z,97689.34
2023-11-02T12:46:01.335Z,97688.48
2023-11-02T12:48:33.875Z,97683.77
2023-11-02T12:51:17.717Z,97676.02
2023-11-02T12:53:44.988Z,97674.06
2023-11-02T12:56:13.219Z,97676.41
2023-11-02T12:58:40.765Z,97678.39
2023-11-02T13:01:07.804Z,97679.64
2023-11-02T13:03:34.747Z,97675.87
2023-11-02T13:06:01.661Z,97678.36
2023-11-02T13:08:28.509Z,97675.14
2023-11-02T13:10:55.759Z,97674.75
2023-11-02T13:13:23.823Z,97673.27
2023-11-02T13:15:52.869Z,97673.17
2023-11-02T13:18:20.156Z,97673.77
2023-11-02T13:20:49.464Z,97672.99
2023-11-02T13:23:16.365Z,97673.31
2023-11-02T13:25:43.286Z,97674.36
2023-11-02T13:28:12.920Z,97672.21
2023-11-02T13:30:41.482Z,97667.94
2023-11-02T13:33:11.965Z,97668.28
2023-11-02T13:35:38.856Z,97667.29
2023-11-02T13:38:06.619Z,97668.46
2023-11-02T13:40:33.530Z,97660.30
2023-11-02T13:43:02.155Z,97664.94
2023-11-02T13:45:30.622Z,97665.55
2023-11-02T13:47:58.656Z,97661.61
2023-11-02T13:50:25.556Z,97662.53
2023-11-02T13:52:52.457Z,97661.35
2023-11-02T13:55:19.514Z,97660.83
2023-11-02T13:57:46.786Z,97659.90
2023-11-02T14:00:16.933Z,97661.30
2023-11-02T14:02:44.400Z,97663.78
2023-11-02T14:05:12.499Z,97663.42
2023-11-02T14:07:39.760Z,97669.02
2023-11-02T14:10:07.526Z,97669.77
2023-11-02T14:12:34.856Z,97670.02
2023-11-02T14:15:01.964Z,97669.29
2023-11-02T14:17:29.152Z,97665.34
2023-11-02T14:19:57.247Z,97662.42
2023-11-02T14:22:24.393Z,97661.30
2023-11-02T14:24:54.441Z,97659.13
2023-11-02T14:27:25.073Z,97661.76
2023-11-02T14:29:52.227Z,97660.26
2023-11-02T14:32:19.378Z,97660.24
2023-11-02T14:34:46.393Z,97663.38
2023-11-02T14:37:13.528Z,97663.43
2023-11-02T14:39:41.311Z,97658.64
2023-11-02T14:42:09.619Z,97655.70
2023-11-02T14:44:37.105Z,97650.89
2023-11-02T14:47:05.379Z,97647.60
2023-11-02T14:49:36.002Z,97646.13
2023-11-02T14:52:07.982Z,97643.96
2023-11-02T14:54:46.342Z,97648.66
2023-11-02T14:57:19.793Z,97643.84
2023-11-02T14:59:46.968Z,97642.55
2023-11-02T15:02:13.965Z,97634.00
2023-11-02T15:04:41.331Z,97631.79
2023-11-02T15:07:08.372Z,97624.91
2023-11-02T15:09:35.372Z,97626.09
2023-11-02T15:12:02.263Z,97620.80
2023-11-02T15:14:29.359Z,97617.88
2023-11-02T15:16:56.294Z,97620.53
2023-11-02T15:19:23.158Z,97620.61
2023-11-02T15:21:50.254Z,97626.83
2023-11-02T15:24:17.339Z,97624.87
2023-11-02T15:26:44.212Z,97623.80
2023-11-02T15:29:12.741Z,97623.27
2023-11-02T15:31:39.639Z,97623.05
2023-11-02T15:34:06.785Z,97623.26
2023-11-02T15:36:38.515Z,97628.55
2023-11-02T15:39:11.523Z,97629.48
2023-11-02T15:41:38.744Z,97632.79
2023-11-02T15:44:06.037Z,97641.80
2023-11-02T15:46:33.369Z,97648.82
2023-11-02T15:49:00.366Z,97649.02
2023-11-02T15:51:27.401Z,97648.88
2023-11-02T15:53:54.455Z,97646.11
2023-11-02T15:56:21.395Z,97644.34
2023-11-02T15:58:48.296Z,97644.64
2023-11-02T16:01:25.316Z,97635.38
2023-11-02T16:03:54.232Z,97634.65
2023-11-02T16:06:22.570Z,97635.08
2023-11-02T16:08:49.574Z,97628.52
2023-11-02T16:11:16.996Z,97633.38
2023-11-02T16:13:46.870Z,97628.85
2023-11-02T16:16:13.733Z,97628.60
2023-11-02T16:18:40.924Z,97627.50
2023-11-02T16:21:08.086Z,97625.18
2023-11-02T16:23:34.970Z,97623.54
2023-11-02T16:26:04.989Z,97621.69
2023-11-02T16:28:36.005Z,97621.05
2023-11-02T16:31:02.863Z,97616.64
2023-11-02T16:33:30.031Z,97611.64
2023-11-02T16:35:57.003Z,97611.86
2023-11-02T16:38:24.697Z,97609.30
2023-11-02T16:40:52.151Z,97609.11
2023-11-02T16:43:19.365Z,97606.77
2023-11-02T16:45:47.973Z,97606.59
2023-11-02T16:48:14.992Z,97601.60
2023-11-02T16:50:41.983Z,97601.64
2023-11-02T16:53:08.854Z,97597.85
2023-11-02T16:55:37.987Z,97595.98
2023-11-02T16:58:04.860Z,97598.23
2023-11-02T17:00:31.838Z,97597.27
2023-11-02T17:02:58.763Z,97593.96
2023-11-02T17:05:25.660Z,97594.58
2023-11-02T17:07:52.557Z,97590.68
2023-11-02T17:10:19.659Z,97594.15
2023-11-02T17:12:48.146Z,97594.54
2023-11-02T17:15:15.129Z,97594.00
2023-11-02T17:17:42.122Z,97592.54
2023-11-02T17:20:09.698Z,97591.70
2023-11-02T17:22:37.904Z,97589.09
2023-11-02T17:25:05.845Z,97583.57
2023-11-02T17:27:33.968Z,97579.64
2023-11-02T17:30:00.894Z,97576.84
2023-11-02T17:32:29.200Z,97575.48
2023-11-02T17:34:56.167Z,97574.39
2023-11-02T17:37:23.393Z,97574.98
2023-11-02T17:39:50.300Z,97575.59
2023-11-02T17:42:20.459Z,97576.52
2023-11-02T17:44:52.442Z,97575.25
2023-11-02T17:47:19.338Z,97575.41
2023-11-02T17:49:46.762Z,97572.83
2023-11-02T17:52:14.089Z,97575.95
2023-11-02T17:54:42.829Z,97574.50
2023-11-02T17:57:09.763Z,97580.98
2023-11-02T17:59:36.670Z,97577.81
2023-11-02T18:02:03.740Z,97574.63
2023-11-02T18:04:30.988Z,97576.93
2023-11-02T18:06:57.956Z,97575.41
2023-11-02T18:09:25.125Z,97577.70
2023-11-02T18:11:52.921Z,97578.39
2023-11-02T18:14:19.919Z,97578.75
2023-11-02T18:16:46.863Z,97581.02
2023-11-02T18:19:13.782Z,97576.99
2023-11-02T18:21:40.712Z,97576.64
2023-11-02T18:24:08.160Z,97574.48
2023-11-02T18:26:35.059Z,97571.47
2023-11-02T18:29:10.555Z,97573.09
2023-11-02T18:31:38.052Z,97574.05
2023-11-02T18:34:06.052Z,97575.14
2023-11-02T18:36:33.633Z,97573.80
2023-11-02T18:39:01.272Z,97571.47
2023-11-02T18:41:28.187Z,97575.02
2023-11-02T18:43:55.162Z,97569.05
2023-11-02T18:46:22.379Z,97565.91
2023-11-02T18:48:50.026Z,97564.20
2023-11-02T18:51:17.095Z,97561.02
2023-11-02T18:53:45.717Z,97562.50
2023-11-02T18:56:12.561Z,97558.37
2023-11-02T18:58:40.413Z,97560.45
2023-11-02T19:01:07.949Z,97557.99
2023-11-02T19:03:35.877Z,97555.44
2023-11-02T19:06:03.353Z,97545.11
2023-11-02T19:08:30.993Z,97542.16
2023-11-02T19:11:01.120Z,97542.75
2023-11-02T19:13:28.547Z,97541.54
2023-11-02T19:15:55.875Z,97536.80
2023-11-02T19:18:25.092Z,97536.42
2023-11-02T19:20:55.142Z,97538.96
2023-11-02T19:23:22.017Z,97541.06
2023-11-02T19:25:50.205Z,97540.04
2023-11-02T19:28:17.594Z,97534.96
2023-11-02T19:30:44.827Z,97531.25
2023-11-02T19:33:11.678Z,97532.14
2023-11-02T19:35:38.518Z,97535.42
2023-11-02T19:38:05.474Z,97536.77
2023-11-02T19:40:32.938Z,97532.77
2023-11-02T19:43:00.141Z,97524.43
2023-11-02T19:45:28.201Z,97517.88
2023-11-02T19:47:55.486Z,97511.33
2023-11-02T19:50:22.649Z,97510.26
2023-11-02T19:52:49.659Z,97502.57
2023-11-02T19:55:16.672Z,97507.56
2023-11-02T19:57:44.128Z,97506.09
2023-11-02T20:00:15.204Z,97505.23
2023-11-02T20:02:45.447Z,97506.48
2023-11-02T20:05:13.163Z,97497.30
2023-11-02T20:07:40.254Z,97486.57
2023-11-02T20:10:08.435Z,97480.11
2023-11-02T20:12:38.725Z,97474.88
2023-11-02T20:15:08.068Z,97466.95
2023-11-02T20:17:38.385Z,97469.52
2023-11-02T20:20:06.080Z,97465.98
2023-11-02T20:22:33.625Z,97455.30
2023-11-02T20:25:00.626Z,97452.10
2023-11-02T20:27:27.749Z,97444.98
2023-11-02T20:29:54.721Z,97445.48
2023-11-02T20:32:21.581Z,97445.02
2023-11-02T20:34:48.603Z,97451.15
2023-11-02T20:37:15.657Z,97453.97
2023-11-02T20:39:42.549Z,97457.10
2023-11-02T20:42:09.440Z,97455.67
2023-11-02T20:44:36.352Z,97457.66
2023-11-02T20:47:06.324Z,97456.95
2023-11-02T20:49:33.183Z,97451.67
2023-11-02T20:52:00.240Z,97453.42
2023-11-02T20:54:27.511Z,97450.17
2023-11-02T20:56:54.725Z,97449.20
2023-11-02T20:59:21.660Z,97452.28
2023-11-02T21:01:48.579Z,97454.20
2023-11-02T21:04:18.414Z,97454.98
2023-11-02T21:06:54.748Z,97454.73
2023-11-02T21:09:27.208Z,97454.11
2023-11-02T21:11:54.506Z,97456.37
2023-11-02T21:14:21.353Z,97464.83
2023-11-02T21:16:48.282Z,97465.82
2023-11-02T21:19:15.865Z,97467.25
2023-11-02T21:21:43.434Z,97470.54
2023-11-02T21:24:10.437Z,97470.95
2023-11-02T21:26:37.552Z,97472.69
2023-11-02T21:29:04.354Z,97472.55
2023-11-02T21:31:31.335Z,97472.40
2023-11-02T21:33:58.241Z,97472.70
2023-11-02T21:36:26.978Z,97473.29
2023-11-02T21:38:54.031Z,97468.05
2023-11-02T21:41:22.679Z,97461.75
2023-11-02T21:43:51.029Z,97465.02
2023-11-02T21:46:18.711Z,97463.35
2023-11-02T21:48:46.386Z,97466.95
2023-11-02T21:51:13.312Z,97467.09
2023-11-02T21:53:40.140Z,97467.95
2023-11-02T21:56:07.357Z,97464.92
2023-11-02T21:58:34.455Z,97462.06
2023-11-02T22:01:01.358Z,97459.20
2023-11-02T22:03:28.722Z,97455.73
2023-11-02T22:05:55.578Z,97456.02
2023-11-02T22:08:23.241Z,97457.27
2023-11-02T22:10:50.056Z,97456.21
2023-11-02T22:13:17.094Z,97462.90
2023-11-02T22:15:44.006Z,97457.10
2023-11-02T22:18:10.995Z,97442.68
2023-11-02T22:20:37.858Z,97436.48
2023-11-02T22:23:04.759Z,97438.78
2023-11-02T22:25:31.622Z,97439.70
2023-11-02T22:27:58.685Z,97434.52
2023-11-02T22:30:26.076Z,97425.00
2023-11-02T22:32:53.380Z,97418.77
2023-11-02T22:35:20.196Z,97421.10
2023-11-02T22:37:47.410Z,97419.14
2023-11-02T22:40:14.575Z,97419.05
2023-11-02T22:42:41.585Z,97414.38
2023-11-02T22:45:11.108Z,97412.58
2023-11-02T22:47:38.033Z,97409.83
2023-11-02T22:50:05.192Z,97409.83
2023-11-02T22:52:34.595Z,97403.59
2023-11-02T22:55:01.958Z,97407.82
2023-11-02T22:57:29.233Z,97407.41
2023-11-02T22:59:56.221Z,97402.37
2023-11-02T23:02:23.021Z,97399.48
2023-11-02T23:04:49.937Z,97398.36
2023-11-02T23:07:19.223Z,97392.77
2023-11-02T23:09:46.059Z,97393.70
2023-11-02T23:12:12.967Z,97393.90
2023-11-02T23:14:40.466Z,97393.83
2023-11-02T23:17:07.403Z,97389.36
2023-11-02T23:19:34.437Z,97387.64
2023-11-02T23:22:01.310Z,97385.46
2023-11-02T23:24:28.383Z,97379.34
2023-11-02T23:26:58.130Z,97376.84
2023-11-02T23:29:25.178Z,97376.71
2023-11-02T23:31:52.865Z,97378.96
2023-11-02T23:34:19.892Z,97386.30
2023-11-02T23:36:46.901Z,97383.15
2023-11-02T23:39:13.713Z,97380.77
2023-11-02T23:41:41.779Z,97376.63
2023-11-02T23:44:08.582Z,97373.64
2023-11-02T23:46:35.454Z,97371.06
2023-11-02T23:49:02.541Z,97364.75
2023-11-02T23:51:29.951Z,97359.39
2023-11-02T23:53:56.785Z,97359.27
2023-11-02T23:56:23.605Z,97356.50
2023-11-02T23:58:50.423Z,97356.08
